sensor_id;sensor_type;location;lat;lon;timestamp;P1;durP1;ratioP1;P2;durP2;ratioP2
62030;SDS011;62035;52.094;5.112;2024-02-26T00:02:24;6.60;;;2.95;;
62030;SDS011;62035;52.094;5.112;2024-02-26T00:04:51;5.65;;;2.50;;
62030;SDS011;62035;52.094;5.112;2024-02-26T00:07:18;4.32;;;2.28;;
62030;SDS011;62035;52.094;5.112;2024-02-26T00:09:46;3.17;;;2.35;;
62030;SDS011;62035;52.094;5.112;2024-02-26T00:12:13;3.83;;;2.67;;
62030;SDS011;62035;52.094;5.112;2024-02-26T00:14:40;5.00;;;2.55;;
62030;SDS011;62035;52.094;5.112;2024-02-26T00:17:07;5.43;;;2.60;;
62030;SDS011;62035;52.094;5.112;2024-02-26T00:19:36;5.75;;;2.70;;
62030;SDS011;62035;52.094;5.112;2024-02-26T00:22:03;4.57;;;2.67;;
62030;SDS011;62035;52.094;5.112;2024-02-26T00:24:30;6.50;;;2.75;;
62030;SDS011;62035;52.094;5.112;2024-02-26T00:26:59;5.30;;;2.70;;
62030;SDS011;62035;52.094;5.112;2024-02-26T00:29:27;4.90;;;2.92;;
62030;SDS011;62035;52.094;5.112;2024-02-26T00:31:54;3.95;;;2.33;;
62030;SDS011;62035;52.094;5.112;2024-02-26T00:34:22;4.75;;;3.08;;
62030;SDS011;62035;52.094;5.112;2024-02-26T00:36:51;7.53;;;2.80;;
62030;SDS011;62035;52.094;5.112;2024-02-26T00:39:18;6.15;;;3.30;;
62030;SDS011;62035;52.094;5.112;2024-02-26T00:41:45;4.65;;;3.00;;
62030;SDS011;62035;52.094;5.112;2024-02-26T00:44:12;4.63;;;2.95;;
62030;SDS011;62035;52.094;5.112;2024-02-26T00:46:39;4.90;;;2.80;;
62030;SDS011;62035;52.094;5.112;2024-02-26T00:49:07;6.50;;;3.28;;
62030;SDS011;62035;52.094;5.112;2024-02-26T00:51:34;6.13;;;2.95;;
62030;SDS011;62035;52.094;5.112;2024-02-26T00:54:02;5.15;;;3.25;;
62030;SDS011;62035;52.094;5.112;2024-02-26T00:56:30;4.82;;;3.05;;
62030;SDS011;62035;52.094;5.112;2024-02-26T00:58:58;5.70;;;3.15;;
62030;SDS011;62035;52.094;5.112;2024-02-26T01:01:25;5.18;;;3.78;;
62030;SDS011;62035;52.094;5.112;2024-02-26T01:03:52;5.90;;;3.92;;
62030;SDS011;62035;52.094;5.112;2024-02-26T01:06:20;5.60;;;3.80;;
62030;SDS011;62035;52.094;5.112;2024-02-26T01:08:47;8.43;;;3.60;;
62030;SDS011;62035;52.094;5.112;2024-02-26T01:11:16;5.50;;;3.35;;
62030;SDS011;62035;52.094;5.112;2024-02-26T01:13:43;5.55;;;3.33;;
62030;SDS011;62035;52.094;5.112;2024-02-26T01:16:10;5.30;;;3.70;;
62030;SDS011;62035;52.094;5.112;2024-02-26T01:18:38;6.97;;;3.72;;
62030;SDS011;62035;52.094;5.112;2024-02-26T01:21:05;7.80;;;3.65;;
62030;SDS011;62035;52.094;5.112;2024-02-26T01:23:34;5.13;;;3.50;;
62030;SDS011;62035;52.094;5.112;2024-02-26T01:26:02;6.50;;;3.88;;
62030;SDS011;62035;52.094;5.112;2024-02-26T01:28:31;5.38;;;3.95;;
62030;SDS011;62035;52.094;5.112;2024-02-26T01:30:59;5.38;;;3.50;;
62030;SDS011;62035;52.094;5.112;2024-02-26T01:33:26;5.25;;;3.50;;
62030;SDS011;62035;52.094;5.112;2024-02-26T01:35:53;4.82;;;3.40;;
62030;SDS011;62035;52.094;5.112;2024-02-26T01:38:20;5.00;;;3.53;;
62030;SDS011;62035;52.094;5.112;2024-02-26T01:40:48;8.07;;;3.72;;
62030;SDS011;62035;52.094;5.112;2024-02-26T01:43:15;5.68;;;3.53;;
62030;SDS011;62035;52.094;5.112;2024-02-26T01:45:43;6.10;;;3.83;;
62030;SDS011;62035;52.094;5.112;2024-02-26T01:48:10;6.20;;;4.22;;
62030;SDS011;62035;52.094;5.112;2024-02-26T01:50:38;5.82;;;4.22;;
62030;SDS011;62035;52.094;5.112;2024-02-26T01:53:07;6.40;;;3.95;;
62030;SDS011;62035;52.094;5.112;2024-02-26T01:55:36;8.32;;;3.80;;
62030;SDS011;62035;52.094;5.112;2024-02-26T01:58:03;5.97;;;3.53;;
62030;SDS011;62035;52.094;5.112;2024-02-26T02:00:31;6.40;;;3.65;;
62030;SDS011;62035;52.094;5.112;2024-02-26T02:03:00;6.78;;;4.13;;
62030;SDS011;62035;52.094;5.112;2024-02-26T02:05:28;6.57;;;3.40;;
62030;SDS011;62035;52.094;5.112;2024-02-26T02:07:57;7.22;;;3.97;;
62030;SDS011;62035;52.094;5.112;2024-02-26T02:10:25;6.03;;;4.05;;
62030;SDS011;62035;52.094;5.112;2024-02-26T02:12:53;8.23;;;4.15;;
62030;SDS011;62035;52.094;5.112;2024-02-26T02:15:20;8.52;;;3.85;;
62030;SDS011;62035;52.094;5.112;2024-02-26T02:17:48;6.68;;;3.83;;
62030;SDS011;62035;52.094;5.112;2024-02-26T02:20:17;7.28;;;3.70;;
62030;SDS011;62035;52.094;5.112;2024-02-26T02:22:46;6.20;;;3.80;;
62030;SDS011;62035;52.094;5.112;2024-02-26T02:25:13;7.45;;;4.07;;
62030;SDS011;62035;52.094;5.112;2024-02-26T02:27:41;6.57;;;4.35;;
62030;SDS011;62035;52.094;5.112;2024-02-26T02:30:09;6.65;;;4.05;;
62030;SDS011;62035;52.094;5.112;2024-02-26T02:32:38;8.25;;;3.88;;
62030;SDS011;62035;52.094;5.112;2024-02-26T02:35:07;7.32;;;4.15;;
62030;SDS011;62035;52.094;5.112;2024-02-26T02:37:34;8.30;;;4.50;;
62030;SDS011;62035;52.094;5.112;2024-02-26T02:40:04;6.47;;;4.47;;
62030;SDS011;62035;52.094;5.112;2024-02-26T02:42:32;5.57;;;3.85;;
62030;SDS011;62035;52.094;5.112;2024-02-26T02:45:00;7.20;;;4.53;;
62030;SDS011;62035;52.094;5.112;2024-02-26T02:47:27;7.28;;;3.70;;
62030;SDS011;62035;52.094;5.112;2024-02-26T02:49:54;7.18;;;4.10;;
62030;SDS011;62035;52.094;5.112;2024-02-26T02:52:22;7.00;;;4.65;;
62030;SDS011;62035;52.094;5.112;2024-02-26T02:54:49;7.78;;;4.50;;
62030;SDS011;62035;52.094;5.112;2024-02-26T02:57:17;8.43;;;5.43;;
62030;SDS011;62035;52.094;5.112;2024-02-26T02:59:44;7.75;;;4.10;;
62030;SDS011;62035;52.094;5.112;2024-02-26T03:02:12;8.50;;;4.65;;
62030;SDS011;62035;52.094;5.112;2024-02-26T03:04:39;7.10;;;4.80;;
62030;SDS011;62035;52.094;5.112;2024-02-26T03:07:06;8.32;;;5.05;;
62030;SDS011;62035;52.094;5.112;2024-02-26T03:09:33;6.90;;;4.57;;
62030;SDS011;62035;52.094;5.112;2024-02-26T03:12:00;9.13;;;4.97;;
62030;SDS011;62035;52.094;5.112;2024-02-26T03:14:29;7.32;;;4.68;;
62030;SDS011;62035;52.094;5.112;2024-02-26T03:16:56;6.85;;;4.80;;
62030;SDS011;62035;52.094;5.112;2024-02-26T03:19:24;8.35;;;5.22;;
62030;SDS011;62035;52.094;5.112;2024-02-26T03:21:51;11.82;;;6.20;;
62030;SDS011;62035;52.094;5.112;2024-02-26T03:24:18;8.15;;;5.30;;
62030;SDS011;62035;52.094;5.112;2024-02-26T03:26:45;8.13;;;5.38;;
62030;SDS011;62035;52.094;5.112;2024-02-26T03:29:12;8.48;;;5.40;;
62030;SDS011;62035;52.094;5.112;2024-02-26T03:31:41;9.57;;;5.30;;
62030;SDS011;62035;52.094;5.112;2024-02-26T03:34:08;10.80;;;5.28;;
62030;SDS011;62035;52.094;5.112;2024-02-26T03:36:35;8.10;;;5.07;;
62030;SDS011;62035;52.094;5.112;2024-02-26T03:39:02;8.07;;;5.38;;
62030;SDS011;62035;52.094;5.112;2024-02-26T03:41:33;9.02;;;5.22;;
62030;SDS011;62035;52.094;5.112;2024-02-26T03:44:00;8.48;;;5.57;;
62030;SDS011;62035;52.094;5.112;2024-02-26T03:46:27;9.30;;;5.85;;
62030;SDS011;62035;52.094;5.112;2024-02-26T03:48:56;8.85;;;5.60;;
62030;SDS011;62035;52.094;5.112;2024-02-26T03:51:23;8.10;;;4.70;;
62030;SDS011;62035;52.094;5.112;2024-02-26T03:53:50;9.73;;;5.75;;
62030;SDS011;62035;52.094;5.112;2024-02-26T03:56:18;9.18;;;5.20;;
62030;SDS011;62035;52.094;5.112;2024-02-26T03:58:46;11.13;;;5.93;;
62030;SDS011;62035;52.094;5.112;2024-02-26T04:01:13;11.43;;;6.03;;
62030;SDS011;62035;52.094;5.112;2024-02-26T04:03:41;12.02;;;6.28;;
62030;SDS011;62035;52.094;5.112;2024-02-26T04:06:10;9.70;;;5.65;;
62030;SDS011;62035;52.094;5.112;2024-02-26T04:08:39;13.07;;;6.40;;
62030;SDS011;62035;52.094;5.112;2024-02-26T04:11:07;9.68;;;6.05;;
62030;SDS011;62035;52.094;5.112;2024-02-26T04:13:34;9.88;;;5.78;;
62030;SDS011;62035;52.094;5.112;2024-02-26T04:16:03;8.98;;;5.65;;
62030;SDS011;62035;52.094;5.112;2024-02-26T04:18:31;11.27;;;5.65;;
62030;SDS011;62035;52.094;5.112;2024-02-26T04:20:58;10.95;;;5.95;;
62030;SDS011;62035;52.094;5.112;2024-02-26T04:23:27;8.88;;;5.72;;
62030;SDS011;62035;52.094;5.112;2024-02-26T04:25:54;8.90;;;5.45;;
62030;SDS011;62035;52.094;5.112;2024-02-26T04:28:21;11.43;;;6.18;;
62030;SDS011;62035;52.094;5.112;2024-02-26T04:30:51;9.65;;;5.80;;
62030;SDS011;62035;52.094;5.112;2024-02-26T04:33:18;11.02;;;6.05;;
62030;SDS011;62035;52.094;5.112;2024-02-26T04:35:45;10.60;;;5.97;;
62030;SDS011;62035;52.094;5.112;2024-02-26T04:38:12;10.52;;;6.50;;
62030;SDS011;62035;52.094;5.112;2024-02-26T04:40:41;10.15;;;6.28;;
62030;SDS011;62035;52.094;5.112;2024-02-26T04:43:08;12.30;;;6.80;;
62030;SDS011;62035;52.094;5.112;2024-02-26T04:45:35;11.23;;;6.72;;
62030;SDS011;62035;52.094;5.112;2024-02-26T04:48:03;10.43;;;6.00;;
62030;SDS011;62035;52.094;5.112;2024-02-26T04:50:30;16.17;;;6.65;;
62030;SDS011;62035;52.094;5.112;2024-02-26T04:52:57;9.48;;;6.43;;
62030;SDS011;62035;52.094;5.112;2024-02-26T04:55:25;11.75;;;6.97;;
62030;SDS011;62035;52.094;5.112;2024-02-26T04:57:52;13.68;;;7.70;;
62030;SDS011;62035;52.094;5.112;2024-02-26T05:00:19;14.57;;;7.40;;
62030;SDS011;62035;52.094;5.112;2024-02-26T05:02:46;10.75;;;6.60;;
62030;SDS011;62035;52.094;5.112;2024-02-26T05:05:14;13.65;;;7.85;;
62030;SDS011;62035;52.094;5.112;2024-02-26T05:07:41;10.93;;;6.75;;
62030;SDS011;62035;52.094;5.112;2024-02-26T05:10:09;12.55;;;7.18;;
62030;SDS011;62035;52.094;5.112;2024-02-26T05:12:36;12.73;;;7.00;;
62030;SDS011;62035;52.094;5.112;2024-02-26T05:15:06;11.93;;;7.22;;
62030;SDS011;62035;52.094;5.112;2024-02-26T05:17:33;11.90;;;6.88;;
62030;SDS011;62035;52.094;5.112;2024-02-26T05:20:01;11.60;;;7.05;;
62030;SDS011;62035;52.094;5.112;2024-02-26T05:22:28;11.27;;;7.03;;
62030;SDS011;62035;52.094;5.112;2024-02-26T05:24:55;13.20;;;7.50;;
62030;SDS011;62035;52.094;5.112;2024-02-26T05:27:22;12.32;;;7.55;;
62030;SDS011;62035;52.094;5.112;2024-02-26T05:29:49;14.68;;;7.60;;
62030;SDS011;62035;52.094;5.112;2024-02-26T05:32:18;12.80;;;7.05;;
62030;SDS011;62035;52.094;5.112;2024-02-26T05:34:46;11.75;;;7.32;;
62030;SDS011;62035;52.094;5.112;2024-02-26T05:37:13;12.43;;;6.85;;
62030;SDS011;62035;52.094;5.112;2024-02-26T05:39:40;14.43;;;7.50;;
62030;SDS011;62035;52.094;5.112;2024-02-26T05:42:07;10.80;;;6.43;;
62030;SDS011;62035;52.094;5.112;2024-02-26T05:44:35;12.50;;;7.40;;
62030;SDS011;62035;52.094;5.112;2024-02-26T05:47:03;11.80;;;7.03;;
62030;SDS011;62035;52.094;5.112;2024-02-26T05:49:31;12.50;;;6.68;;
62030;SDS011;62035;52.094;5.112;2024-02-26T05:51:59;15.48;;;7.15;;
62030;SDS011;62035;52.094;5.112;2024-02-26T05:54:26;12.07;;;6.68;;
62030;SDS011;62035;52.094;5.112;2024-02-26T05:56:54;13.85;;;7.32;;
62030;SDS011;62035;52.094;5.112;2024-02-26T05:59:30;13.30;;;7.30;;
62030;SDS011;62035;52.094;5.112;2024-02-26T06:01:57;13.05;;;7.30;;
62030;SDS011;62035;52.094;5.112;2024-02-26T06:04:25;11.43;;;7.28;;
62030;SDS011;62035;52.094;5.112;2024-02-26T06:06:54;13.70;;;7.72;;
62030;SDS011;62035;52.094;5.112;2024-02-26T06:09:22;12.50;;;7.57;;
62030;SDS011;62035;52.094;5.112;2024-02-26T06:11:49;14.00;;;6.85;;
62030;SDS011;62035;52.094;5.112;2024-02-26T06:14:16;13.27;;;7.15;;
62030;SDS011;62035;52.094;5.112;2024-02-26T06:16:45;15.05;;;7.80;;
62030;SDS011;62035;52.094;5.112;2024-02-26T06:19:12;13.52;;;7.78;;
62030;SDS011;62035;52.094;5.112;2024-02-26T06:21:39;13.55;;;7.78;;
62030;SDS011;62035;52.094;5.112;2024-02-26T06:24:08;14.38;;;8.13;;
62030;SDS011;62035;52.094;5.112;2024-02-26T06:26:35;13.60;;;7.07;;
62030;SDS011;62035;52.094;5.112;2024-02-26T06:29:02;13.65;;;7.32;;
62030;SDS011;62035;52.094;5.112;2024-02-26T06:31:29;15.85;;;8.05;;
62030;SDS011;62035;52.094;5.112;2024-02-26T06:33:56;15.45;;;8.18;;
62030;SDS011;62035;52.094;5.112;2024-02-26T06:36:24;18.02;;;8.43;;
62030;SDS011;62035;52.094;5.112;2024-02-26T06:38:51;16.20;;;8.13;;
62030;SDS011;62035;52.094;5.112;2024-02-26T06:41:21;18.27;;;8.63;;
62030;SDS011;62035;52.094;5.112;2024-02-26T06:43:52;16.15;;;8.45;;
62030;SDS011;62035;52.094;5.112;2024-02-26T06:46:19;18.13;;;8.82;;
62030;SDS011;62035;52.094;5.112;2024-02-26T06:48:47;21.58;;;9.75;;
62030;SDS011;62035;52.094;5.112;2024-02-26T06:51:14;20.23;;;10.25;;
62030;SDS011;62035;52.094;5.112;2024-02-26T06:53:42;18.15;;;9.60;;
62030;SDS011;62035;52.094;5.112;2024-02-26T06:56:09;18.85;;;9.80;;
62030;SDS011;62035;52.094;5.112;2024-02-26T06:58:37;17.55;;;9.55;;
62030;SDS011;62035;52.094;5.112;2024-02-26T07:01:05;20.70;;;9.75;;
62030;SDS011;62035;52.094;5.112;2024-02-26T07:03:33;20.27;;;10.60;;
62030;SDS011;62035;52.094;5.112;2024-02-26T07:06:01;24.02;;;10.38;;
62030;SDS011;62035;52.094;5.112;2024-02-26T07:08:28;17.67;;;9.85;;
62030;SDS011;62035;52.094;5.112;2024-02-26T07:10:56;22.63;;;11.00;;
62030;SDS011;62035;52.094;5.112;2024-02-26T07:13:23;23.17;;;10.27;;
62030;SDS011;62035;52.094;5.112;2024-02-26T07:15:51;21.67;;;10.65;;
62030;SDS011;62035;52.094;5.112;2024-02-26T07:18:19;22.55;;;11.68;;
62030;SDS011;62035;52.094;5.112;2024-02-26T07:20:46;23.38;;;12.43;;
62030;SDS011;62035;52.094;5.112;2024-02-26T07:23:13;23.98;;;11.82;;
62030;SDS011;62035;52.094;5.112;2024-02-26T07:25:41;24.52;;;12.38;;
62030;SDS011;62035;52.094;5.112;2024-02-26T07:28:10;25.73;;;12.25;;
62030;SDS011;62035;52.094;5.112;2024-02-26T07:30:37;24.13;;;11.98;;
62030;SDS011;62035;52.094;5.112;2024-02-26T07:33:06;19.60;;;10.75;;
62030;SDS011;62035;52.094;5.112;2024-02-26T07:35:33;23.42;;;11.77;;
62030;SDS011;62035;52.094;5.112;2024-02-26T07:38:02;25.52;;;12.60;;
62030;SDS011;62035;52.094;5.112;2024-02-26T07:40:29;27.42;;;13.82;;
62030;SDS011;62035;52.094;5.112;2024-02-26T07:42:56;22.50;;;11.77;;
62030;SDS011;62035;52.094;5.112;2024-02-26T07:45:23;22.48;;;12.23;;
62030;SDS011;62035;52.094;5.112;2024-02-26T07:47:51;24.08;;;13.07;;
62030;SDS011;62035;52.094;5.112;2024-02-26T07:50:20;22.85;;;11.73;;
62030;SDS011;62035;52.094;5.112;2024-02-26T07:52:47;29.88;;;14.02;;
62030;SDS011;62035;52.094;5.112;2024-02-26T07:55:16;21.67;;;12.05;;
62030;SDS011;62035;52.094;5.112;2024-02-26T07:57:44;20.77;;;11.95;;
62030;SDS011;62035;52.094;5.112;2024-02-26T08:00:12;24.13;;;12.18;;
62030;SDS011;62035;52.094;5.112;2024-02-26T08:02:42;20.90;;;11.23;;
62030;SDS011;62035;52.094;5.112;2024-02-26T08:05:10;20.92;;;11.02;;
62030;SDS011;62035;52.094;5.112;2024-02-26T08:07:39;19.90;;;11.25;;
62030;SDS011;62035;52.094;5.112;2024-02-26T08:10:06;17.85;;;11.18;;
62030;SDS011;62035;52.094;5.112;2024-02-26T08:12:34;21.83;;;11.65;;
62030;SDS011;62035;52.094;5.112;2024-02-26T08:15:01;18.48;;;10.45;;
62030;SDS011;62035;52.094;5.112;2024-02-26T08:17:29;16.50;;;9.25;;
62030;SDS011;62035;52.094;5.112;2024-02-26T08:19:58;17.35;;;9.57;;
62030;SDS011;62035;52.094;5.112;2024-02-26T08:22:25;16.63;;;9.18;;
62030;SDS011;62035;52.094;5.112;2024-02-26T08:24:54;19.25;;;9.88;;
62030;SDS011;62035;52.094;5.112;2024-02-26T08:27:21;15.73;;;9.15;;
62030;SDS011;62035;52.094;5.112;2024-02-26T08:29:48;15.05;;;8.68;;
62030;SDS011;62035;52.094;5.112;2024-02-26T08:32:15;13.95;;;8.73;;
62030;SDS011;62035;52.094;5.112;2024-02-26T08:34:43;16.70;;;8.82;;
62030;SDS011;62035;52.094;5.112;2024-02-26T08:37:10;17.25;;;7.97;;
62030;SDS011;62035;52.094;5.112;2024-02-26T08:39:37;12.95;;;7.60;;
62030;SDS011;62035;52.094;5.112;2024-02-26T08:42:06;13.57;;;7.88;;
62030;SDS011;62035;52.094;5.112;2024-02-26T08:44:33;11.70;;;7.18;;
62030;SDS011;62035;52.094;5.112;2024-02-26T08:47:00;12.55;;;7.18;;
62030;SDS011;62035;52.094;5.112;2024-02-26T08:49:28;14.65;;;8.20;;
62030;SDS011;62035;52.094;5.112;2024-02-26T08:51:55;13.15;;;7.07;;
62030;SDS011;62035;52.094;5.112;2024-02-26T08:54:22;10.10;;;6.30;;
62030;SDS011;62035;52.094;5.112;2024-02-26T08:56:49;13.57;;;7.35;;
62030;SDS011;62035;52.094;5.112;2024-02-26T08:59:18;14.85;;;6.90;;
62030;SDS011;62035;52.094;5.112;2024-02-26T09:01:48;14.30;;;6.57;;
62030;SDS011;62035;52.094;5.112;2024-02-26T09:04:15;11.20;;;6.68;;
62030;SDS011;62035;52.094;5.112;2024-02-26T09:06:42;10.68;;;6.53;;
62030;SDS011;62035;52.094;5.112;2024-02-26T09:09:09;11.45;;;6.65;;
62030;SDS011;62035;52.094;5.112;2024-02-26T09:11:36;8.65;;;5.63;;
62030;SDS011;62035;52.094;5.112;2024-02-26T09:14:03;10.73;;;6.00;;
62030;SDS011;62035;52.094;5.112;2024-02-26T09:16:32;16.88;;;6.30;;
62030;SDS011;62035;52.094;5.112;2024-02-26T09:18:59;10.50;;;5.82;;
62030;SDS011;62035;52.094;5.112;2024-02-26T09:21:26;9.18;;;6.10;;
62030;SDS011;62035;52.094;5.112;2024-02-26T09:23:54;9.68;;;5.90;;
62030;SDS011;62035;52.094;5.112;2024-02-26T09:26:21;11.93;;;6.00;;
62030;SDS011;62035;52.094;5.112;2024-02-26T09:28:48;9.57;;;5.57;;
62030;SDS011;62035;52.094;5.112;2024-02-26T09:31:17;11.15;;;6.07;;
62030;SDS011;62035;52.094;5.112;2024-02-26T09:33:46;7.97;;;5.32;;
62030;SDS011;62035;52.094;5.112;2024-02-26T09:36:13;10.02;;;5.70;;
62030;SDS011;62035;52.094;5.112;2024-02-26T09:38:40;8.57;;;4.80;;
62030;SDS011;62035;52.094;5.112;2024-02-26T09:41:07;9.30;;;5.97;;
62030;SDS011;62035;52.094;5.112;2024-02-26T09:43:43;10.60;;;6.07;;
62030;SDS011;62035;52.094;5.112;2024-02-26T09:46:11;8.18;;;4.72;;
62030;SDS011;62035;52.094;5.112;2024-02-26T09:48:39;12.10;;;5.63;;
62030;SDS011;62035;52.094;5.112;2024-02-26T09:51:10;9.02;;;5.03;;
62030;SDS011;62035;52.094;5.112;2024-02-26T09:53:38;12.10;;;5.78;;
62030;SDS011;62035;52.094;5.112;2024-02-26T09:56:08;8.73;;;5.05;;
62030;SDS011;62035;52.094;5.112;2024-02-26T09:58:38;8.60;;;5.00;;
62030;SDS011;62035;52.094;5.112;2024-02-26T10:01:07;15.57;;;5.85;;
62030;SDS011;62035;52.094;5.112;2024-02-26T10:03:40;10.20;;;5.45;;
62030;SDS011;62035;52.094;5.112;2024-02-26T10:06:11;9.80;;;5.43;;
62030;SDS011;62035;52.094;5.112;2024-02-26T10:08:38;8.93;;;5.35;;
62030;SDS011;62035;52.094;5.112;2024-02-26T10:11:07;9.38;;;4.95;;
62030;SDS011;62035;52.094;5.112;2024-02-26T10:13:34;9.77;;;4.65;;
62030;SDS011;62035;52.094;5.112;2024-02-26T10:16:02;9.70;;;5.35;;
62030;SDS011;62035;52.094;5.112;2024-02-26T10:18:44;12.10;;;5.68;;
62030;SDS011;62035;52.094;5.112;2024-02-26T10:21:14;10.20;;;5.57;;
62030;SDS011;62035;52.094;5.112;2024-02-26T10:23:43;9.60;;;4.88;;
62030;SDS011;62035;52.094;5.112;2024-02-26T10:26:11;8.85;;;5.18;;
62030;SDS011;62035;52.094;5.112;2024-02-26T10:28:39;10.52;;;5.53;;
62030;SDS011;62035;52.094;5.112;2024-02-26T10:31:07;11.30;;;5.40;;
62030;SDS011;62035;52.094;5.112;2024-02-26T10:33:35;9.57;;;5.53;;
62030;SDS011;62035;52.094;5.112;2024-02-26T10:36:04;13.00;;;5.95;;
62030;SDS011;62035;52.094;5.112;2024-02-26T10:38:34;11.07;;;5.70;;
62030;SDS011;62035;52.094;5.112;2024-02-26T10:41:01;10.82;;;5.78;;
62030;SDS011;62035;52.094;5.112;2024-02-26T10:43:29;10.55;;;5.60;;
62030;SDS011;62035;52.094;5.112;2024-02-26T10:45:56;8.75;;;4.90;;
62030;SDS011;62035;52.094;5.112;2024-02-26T10:48:24;11.90;;;6.25;;
62030;SDS011;62035;52.094;5.112;2024-02-26T10:50:51;10.50;;;5.47;;
62030;SDS011;62035;52.094;5.112;2024-02-26T10:53:20;10.50;;;5.63;;
62030;SDS011;62035;52.094;5.112;2024-02-26T10:55:58;10.77;;;5.90;;
62030;SDS011;62035;52.094;5.112;2024-02-26T10:58:30;10.07;;;5.15;;
62030;SDS011;62035;52.094;5.112;2024-02-26T11:00:58;11.85;;;6.65;;
62030;SDS011;62035;52.094;5.112;2024-02-26T11:03:26;10.45;;;5.80;;
62030;SDS011;62035;52.094;5.112;2024-02-26T11:05:53;10.30;;;5.72;;
62030;SDS011;62035;52.094;5.112;2024-02-26T11:08:21;8.88;;;5.60;;
62030;SDS011;62035;52.094;5.112;2024-02-26T11:10:52;8.57;;;5.13;;
62030;SDS011;62035;52.094;5.112;2024-02-26T11:13:21;10.18;;;5.72;;
62030;SDS011;62035;52.094;5.112;2024-02-26T11:15:52;11.20;;;6.05;;
62030;SDS011;62035;52.094;5.112;2024-02-26T11:18:23;10.07;;;5.72;;
62030;SDS011;62035;52.094;5.112;2024-02-26T11:20:53;10.88;;;6.00;;
62030;SDS011;62035;52.094;5.112;2024-02-26T11:23:23;9.38;;;5.65;;
62030;SDS011;62035;52.094;5.112;2024-02-26T11:25:52;9.55;;;5.35;;
62030;SDS011;62035;52.094;5.112;2024-02-26T11:28:23;9.25;;;5.60;;
62030;SDS011;62035;52.094;5.112;2024-02-26T11:30:52;9.90;;;5.90;;
62030;SDS011;62035;52.094;5.112;2024-02-26T11:33:20;9.98;;;5.80;;
62030;SDS011;62035;52.094;5.112;2024-02-26T11:35:47;9.98;;;6.30;;
62030;SDS011;62035;52.094;5.112;2024-02-26T11:38:19;10.70;;;5.82;;
62030;SDS011;62035;52.094;5.112;2024-02-26T11:40:47;10.63;;;5.85;;
62030;SDS011;62035;52.094;5.112;2024-02-26T11:43:16;10.45;;;5.47;;
62030;SDS011;62035;52.094;5.112;2024-02-26T11:45:50;11.23;;;6.15;;
62030;SDS011;62035;52.094;5.112;2024-02-26T11:48:22;12.70;;;5.97;;
62030;SDS011;62035;52.094;5.112;2024-02-26T11:50:51;9.52;;;5.47;;
62030;SDS011;62035;52.094;5.112;2024-02-26T11:53:19;9.20;;;5.85;;
62030;SDS011;62035;52.094;5.112;2024-02-26T11:55:47;14.00;;;6.60;;
62030;SDS011;62035;52.094;5.112;2024-02-26T11:58:16;10.50;;;5.75;;
62030;SDS011;62035;52.094;5.112;2024-02-26T12:00:43;11.50;;;6.03;;
62030;SDS011;62035;52.094;5.112;2024-02-26T12:03:11;12.20;;;5.32;;
62030;SDS011;62035;52.094;5.112;2024-02-26T12:05:38;9.75;;;5.70;;
62030;SDS011;62035;52.094;5.112;2024-02-26T12:08:06;10.82;;;5.60;;
62030;SDS011;62035;52.094;5.112;2024-02-26T12:10:35;9.15;;;5.45;;
62030;SDS011;62035;52.094;5.112;2024-02-26T12:13:05;8.13;;;5.30;;
62030;SDS011;62035;52.094;5.112;2024-02-26T12:15:37;9.02;;;5.45;;
62030;SDS011;62035;52.094;5.112;2024-02-26T12:18:06;13.70;;;5.65;;
62030;SDS011;62035;52.094;5.112;2024-02-26T12:20:35;11.90;;;5.85;;
62030;SDS011;62035;52.094;5.112;2024-02-26T12:23:03;8.50;;;5.32;;
62030;SDS011;62035;52.094;5.112;2024-02-26T12:25:31;15.07;;;5.70;;
62030;SDS011;62035;52.094;5.112;2024-02-26T12:27:59;11.45;;;5.40;;
62030;SDS011;62035;52.094;5.112;2024-02-26T12:30:27;9.15;;;4.85;;
62030;SDS011;62035;52.094;5.112;2024-02-26T12:32:56;8.57;;;5.25;;
62030;SDS011;62035;52.094;5.112;2024-02-26T12:35:26;9.52;;;5.40;;
62030;SDS011;62035;52.094;5.112;2024-02-26T12:37:53;8.57;;;5.47;;
62030;SDS011;62035;52.094;5.112;2024-02-26T12:40:20;8.32;;;4.55;;
62030;SDS011;62035;52.094;5.112;2024-02-26T12:42:48;9.82;;;5.20;;
62030;SDS011;62035;52.094;5.112;2024-02-26T12:45:15;10.15;;;5.10;;
62030;SDS011;62035;52.094;5.112;2024-02-26T12:47:42;8.20;;;5.00;;
62030;SDS011;62035;52.094;5.112;2024-02-26T12:50:12;9.35;;;5.05;;
62030;SDS011;62035;52.094;5.112;2024-02-26T12:52:42;8.52;;;5.00;;
62030;SDS011;62035;52.094;5.112;2024-02-26T12:55:12;8.88;;;4.68;;
62030;SDS011;62035;52.094;5.112;2024-02-26T12:57:41;7.38;;;4.57;;
62030;SDS011;62035;52.094;5.112;2024-02-26T13:00:11;8.43;;;4.68;;
62030;SDS011;62035;52.094;5.112;2024-02-26T13:02:40;12.85;;;4.95;;
62030;SDS011;62035;52.094;5.112;2024-02-26T13:05:10;8.23;;;4.95;;
62030;SDS011;62035;52.094;5.112;2024-02-26T13:07:41;8.52;;;4.53;;
62030;SDS011;62035;52.094;5.112;2024-02-26T13:10:08;14.02;;;4.95;;
62030;SDS011;62035;52.094;5.112;2024-02-26T13:12:37;10.45;;;5.07;;
62030;SDS011;62035;52.094;5.112;2024-02-26T13:15:08;7.75;;;4.97;;
62030;SDS011;62035;52.094;5.112;2024-02-26T13:17:40;7.80;;;4.72;;
62030;SDS011;62035;52.094;5.112;2024-02-26T13:20:08;8.40;;;5.00;;
62030;SDS011;62035;52.094;5.112;2024-02-26T13:22:37;8.40;;;4.93;;
62030;SDS011;62035;52.094;5.112;2024-02-26T13:25:05;8.63;;;5.45;;
62030;SDS011;62035;52.094;5.112;2024-02-26T13:27:33;6.70;;;4.20;;
62030;SDS011;62035;52.094;5.112;2024-02-26T13:30:04;7.80;;;4.57;;
62030;SDS011;62035;52.094;5.112;2024-02-26T13:32:35;10.90;;;4.97;;
62030;SDS011;62035;52.094;5.112;2024-02-26T13:35:04;7.90;;;5.18;;
62030;SDS011;62035;52.094;5.112;2024-02-26T13:37:33;7.60;;;4.75;;
62030;SDS011;62035;52.094;5.112;2024-02-26T13:40:01;7.25;;;4.55;;
62030;SDS011;62035;52.094;5.112;2024-02-26T13:42:31;9.93;;;5.20;;
62030;SDS011;62035;52.094;5.112;2024-02-26T13:44:59;8.10;;;4.50;;
62030;SDS011;62035;52.094;5.112;2024-02-26T13:47:26;6.38;;;4.28;;
62030;SDS011;62035;52.094;5.112;2024-02-26T13:49:53;7.43;;;4.57;;
62030;SDS011;62035;52.094;5.112;2024-02-26T13:52:22;7.03;;;4.45;;
62030;SDS011;62035;52.094;5.112;2024-02-26T13:54:49;6.80;;;4.68;;
62030;SDS011;62035;52.094;5.112;2024-02-26T13:57:18;6.85;;;4.53;;
62030;SDS011;62035;52.094;5.112;2024-02-26T13:59:45;9.52;;;4.47;;
62030;SDS011;62035;52.094;5.112;2024-02-26T14:02:13;8.00;;;4.53;;
62030;SDS011;62035;52.094;5.112;2024-02-26T14:04:40;10.00;;;4.80;;
62030;SDS011;62035;52.094;5.112;2024-02-26T14:07:07;7.85;;;3.97;;
62030;SDS011;62035;52.094;5.112;2024-02-26T14:09:37;7.18;;;4.85;;
62030;SDS011;62035;52.094;5.112;2024-02-26T14:12:04;6.30;;;3.95;;
62030;SDS011;62035;52.094;5.112;2024-02-26T14:14:33;6.68;;;4.47;;
62030;SDS011;62035;52.094;5.112;2024-02-26T14:19:31;5.55;;;3.80;;
62030;SDS011;62035;52.094;5.112;2024-02-26T14:21:58;5.32;;;3.50;;
62030;SDS011;62035;52.094;5.112;2024-02-26T14:24:25;7.32;;;3.67;;
62030;SDS011;62035;52.094;5.112;2024-02-26T14:26:52;7.18;;;4.20;;
62030;SDS011;62035;52.094;5.112;2024-02-26T14:29:20;8.15;;;3.88;;
62030;SDS011;62035;52.094;5.112;2024-02-26T14:31:49;8.90;;;3.92;;
62030;SDS011;62035;52.094;5.112;2024-02-26T14:34:16;6.47;;;4.30;;
62030;SDS011;62035;52.094;5.112;2024-02-26T14:36:44;5.80;;;3.83;;
62030;SDS011;62035;52.094;5.112;2024-02-26T14:39:12;7.85;;;3.55;;
62030;SDS011;62035;52.094;5.112;2024-02-26T14:41:39;5.55;;;3.38;;
62030;SDS011;62035;52.094;5.112;2024-02-26T14:44:06;5.47;;;4.00;;
62030;SDS011;62035;52.094;5.112;2024-02-26T14:46:35;9.68;;;4.10;;
62030;SDS011;62035;52.094;5.112;2024-02-26T14:49:04;6.78;;;3.97;;